Time;durP1;ratioP1;P1;durP2;ratioP2;P2;SDS_P1;SDS_P2;PMS_P1;PMS_P2;Temp;Humidity;BMP_temperature;BMP_pressure;BME280_temperature;BME280_humidity;BME280_pressure;Samples;Min_cycle;Max_cycle;Signal;HPM_P1;HPM_P2
2022/02/27 00:00:36;;;;;;;15.60;10.53;;;4.00;1.00;4.40;102138.00;;;;5016351;28;20817;-78
2022/02/27 00:03:06;;;;;;;22.43;10.20;;;3.90;1.00;4.30;102150.00;;;;5014158;28;21326;-78
2022/02/27 00:05:34;;;;;;;18.33;9.97;;;3.80;1.00;4.20;102133.00;;;;5016573;28;20458;-77
2022/02/27 00:08:03;;;;;;;16.57;9.80;;;3.80;1.00;4.20;102155.00;;;;5013505;28;20461;-77
2022/02/27 00:10:31;;;;;;;18.17;10.07;;;4.10;1.00;4.20;102146.00;;;;5014465;28;20466;-77
2022/02/27 00:13:00;;;;;;;19.17;9.80;;;3.70;1.00;4.10;102155.00;;;;5014367;28;20639;-77
2022/02/27 00:15:28;;;;;;;15.80;10.27;;;3.60;1.00;4.00;102147.00;;;;5014293;28;20505;-77
2022/02/27 00:17:57;;;;;;;14.67;9.23;;;4.00;1.00;4.00;102142.00;;;;5015861;28;20465;-77
2022/02/27 00:20:27;;;;;;;20.07;10.37;;;3.00;1.00;4.00;102149.00;;;;5020765;28;20463;-77
2022/02/27 00:22:57;;;;;;;18.67;9.77;;;3.40;1.00;4.00;102112.00;;;;5018279;28;20495;-77
2022/02/27 00:25:26;;;;;;;15.57;9.80;;;3.40;1.00;3.80;102152.00;;;;5013879;28;20458;-76
2022/02/27 00:27:54;;;;;;;18.73;9.63;;;3.40;1.00;3.80;102144.00;;;;5013686;28;20477;-78
2022/02/27 00:30:25;;;;;;;14.47;8.80;;;3.30;1.00;3.70;102152.00;;;;5018252;28;20531;-77
2022/02/27 00:32:53;;;;;;;17.50;9.20;;;3.20;1.00;3.70;102104.00;;;;5020802;28;20554;-78
2022/02/27 00:35:21;;;;;;;18.37;9.80;;;3.20;1.00;3.60;102154.00;;;;5020460;28;20477;-77
2022/02/27 00:37:51;;;;;;;19.60;9.40;;;3.20;1.00;3.60;102138.00;;;;5019751;28;20460;-77
2022/02/27 00:40:19;;;;;;;18.90;9.60;;;3.10;1.00;3.60;102142.00;;;;5033889;28;20519;-77
2022/02/27 00:42:47;;;;;;;19.33;9.80;;;3.10;1.00;3.50;102117.00;;;;5014647;28;20509;-77
2022/02/27 00:45:16;;;;;;;16.27;9.43;;;3.10;1.00;3.50;102136.00;;;;5014275;28;20460;-77
2022/02/27 00:47:45;;;;;;;13.93;9.20;;;3.00;1.00;3.40;102142.00;;;;5035616;28;20492;-76
2022/02/27 00:50:14;;;;;;;12.67;8.27;;;3.00;1.00;3.40;102128.00;;;;5037300;28;20459;-79
2022/02/27 00:52:42;;;;;;;21.20;10.43;;;2.90;1.00;3.40;102143.00;;;;5033328;28;20484;-78
2022/02/27 00:55:12;;;;;;;15.00;9.20;;;2.90;1.00;3.40;102063.00;;;;5038785;28;20573;-78
2022/02/27 00:57:40;;;;;;;17.30;9.00;;;2.80;1.00;3.30;102130.00;;;;5030979;28;20457;-78
2022/02/27 01:00:09;;;;;;;16.60;10.03;;;2.80;1.00;3.40;102122.00;;;;5030615;28;20453;-79
2022/02/27 01:02:39;;;;;;;25.30;11.07;;;2.80;1.00;3.20;102119.00;;;;5023245;28;20461;-77
2022/02/27 01:05:09;;;;;;;15.60;8.83;;;2.70;1.00;3.20;102122.00;;;;5030346;28;20584;-77
2022/02/27 01:07:37;;;;;;;12.30;7.67;;;2.70;1.00;3.20;102114.00;;;;5029747;28;20981;-78
2022/02/27 01:10:07;;;;;;;12.33;8.20;;;2.70;1.00;3.20;102096.00;;;;5013703;28;20445;-78
2022/02/27 01:12:38;;;;;;;14.20;8.00;;;2.70;1.00;3.10;102122.00;;;;5027232;28;20535;-78
2022/02/27 01:15:08;;;;;;;12.20;7.70;;;2.70;1.00;3.20;102114.00;;;;5016045;28;21155;-78
2022/02/27 01:17:37;;;;;;;13.03;7.20;;;2.70;1.00;3.20;102116.00;;;;5018253;28;20461;-78
2022/02/27 01:20:08;;;;;;;16.47;7.80;;;2.70;1.00;3.20;102125.00;;;;5025397;28;20465;-78
2022/02/27 01:22:36;;;;;;;12.13;7.43;;;2.70;1.00;3.30;102113.00;;;;5010703;28;20444;-78
2022/02/27 01:25:07;;;;;;;14.40;7.50;;;2.70;1.00;3.30;102114.00;;;;5011209;28;20452;-78
2022/02/27 01:27:37;;;;;;;22.23;8.33;;;2.70;1.00;3.30;102122.00;;;;5019468;28;20583;-78
2022/02/27 01:30:08;;;;;;;12.43;7.50;;;2.70;1.00;3.30;102107.00;;;;5009806;28;20461;-78
2022/02/27 01:32:37;;;;;;;14.70;7.60;;;2.70;1.00;3.20;102105.00;;;;5018426;28;20914;-77
2022/02/27 01:35:08;;;;;;;11.97;7.00;;;2.70;1.00;3.20;102103.00;;;;5015117;28;20495;-77
2022/02/27 01:37:36;;;;;;;11.80;6.37;;;2.60;1.00;3.30;102125.00;;;;5027834;28;21018;-77
2022/02/27 01:40:08;;;;;;;11.57;6.40;;;2.60;1.00;3.10;102103.00;;;;5012594;28;20472;-77
2022/02/27 01:42:39;;;;;;;13.63;7.07;;;2.60;1.00;3.10;102105.00;;;;5029780;28;20468;-79
2022/02/27 01:45:09;;;;;;;10.30;7.07;;;2.60;1.00;3.00;102108.00;;;;5015995;28;20946;-77
2022/02/27 01:47:39;;;;;;;13.80;7.53;;;2.50;1.00;3.00;102115.00;;;;5013621;28;20520;-77
2022/02/27 01:50:09;;;;;;;13.23;6.43;;;2.90;1.00;3.00;66926.00;;;;5011339;28;20471;-77
2022/02/27 01:52:40;;;;;;;14.37;6.87;;;2.50;1.00;3.10;102103.00;;;;5010639;28;20460;-77
2022/02/27 01:55:10;;;;;;;13.97;6.80;;;2.50;1.00;3.00;102097.00;;;;5012951;28;20473;-77
2022/02/27 01:57:44;;;;;;;12.90;7.30;;;2.50;1.00;3.00;102099.00;;;;5008928;28;20805;-77
2022/02/27 02:00:14;;;;;;;14.50;7.20;;;2.50;1.00;2.90;102100.00;;;;5015181;28;20463;-77
2022/02/27 02:02:45;;;;;;;14.87;7.27;;;2.50;1.00;2.90;102110.00;;;;5012929;28;20516;-77
2022/02/27 02:05:15;;;;;;;11.60;6.40;;;2.40;1.00;2.90;102110.00;;;;5028484;28;20462;-78
2022/02/27 02:07:47;;;;;;;12.20;6.87;;;2.60;1.00;2.80;102084.00;;;;5031395;28;20458;-78
2022/02/27 02:10:16;;;;;;;14.67;6.80;;;2.70;1.00;2.70;102094.00;;;;5027027;28;20453;-77
2022/02/27 02:12:51;;;;;;;9.80;6.40;;;2.30;1.00;2.80;102085.00;;;;5021898;28;20590;-78
2022/02/27 02:15:19;;;;;;;9.30;6.17;;;2.30;1.00;2.90;102084.00;;;;5016350;28;21085;-78
2022/02/27 02:17:48;;;;;;;13.43;7.20;;;2.30;1.00;2.80;102100.00;;;;5031543;28;20508;-78
2022/02/27 02:20:19;;;;;;;11.33;6.83;;;2.30;1.00;2.70;102083.00;;;;5013126;28;20485;-77
2022/02/27 02:22:57;;;;;;;10.37;6.93;;;2.20;1.00;2.70;102100.00;;;;5013349;28;21112;-78
2022/02/27 02:25:25;;;;;;;11.80;6.57;;;2.20;1.00;2.70;102093.00;;;;5013274;28;20770;-77
2022/02/27 02:27:55;;;;;;;11.63;6.60;;;2.20;1.00;2.60;102059.00;;;;5012769;28;20444;-78
2022/02/27 02:30:25;;;;;;;11.03;6.60;;;2.10;1.00;2.60;102056.00;;;;5013954;28;20453;-78
2022/02/27 02:32:57;;;;;;;10.93;6.20;;;2.10;1.00;2.60;102032.00;;;;5013923;28;20473;-78
2022/02/27 02:35:29;;;;;;;16.03;6.50;;;2.10;1.00;2.50;102041.00;;;;5030987;28;20473;-78
2022/02/27 02:37:58;;;;;;;10.53;6.73;;;2.10;1.00;2.50;102079.00;;;;5012757;28;20461;-78
2022/02/27 02:40:27;;;;;;;12.50;6.53;;;2.10;1.00;2.60;102063.00;;;;5015002;28;20441;-78
2022/02/27 02:42:59;;;;;;;13.30;6.70;;;2.00;1.00;2.50;102082.00;;;;5030690;28;20512;-78
2022/02/27 02:45:27;;;;;;;11.27;6.20;;;2.00;1.00;2.50;102056.00;;;;5009753;28;20467;-78
2022/02/27 02:47:58;;;;;;;14.70;6.37;;;2.00;1.00;2.40;102075.00;;;;5013180;28;20465;-77
2022/02/27 02:50:30;;;;;;;12.33;6.83;;;1.60;1.00;2.40;102084.00;;;;5036097;28;20453;-78
2022/02/27 02:53:00;;;;;;;15.47;7.10;;;1.90;1.00;2.30;102066.00;;;;5021809;28;20484;-78
2022/02/27 02:55:29;;;;;;;13.67;7.40;;;1.80;1.00;2.30;102085.00;;;;5018751;28;20518;-78
2022/02/27 02:57:59;;;;;;;17.87;7.10;;;2.10;1.00;2.40;102060.00;;;;5017304;28;20453;-78
2022/02/27 03:00:28;;;;;;;8.73;5.80;;;1.80;1.00;2.30;102079.00;;;;5015203;28;20460;-78
2022/02/27 03:02:56;;;;;;;10.97;6.90;;;1.80;1.00;2.20;102069.00;;;;5014895;28;20474;-77
2022/02/27 03:05:25;;;;;;;9.70;7.00;;;1.90;1.00;2.10;102079.00;;;;5013754;28;20536;-78
2022/02/27 03:07:55;;;;;;;13.20;6.60;;;1.70;1.00;2.00;102048.00;;;;5018682;28;21017;-78
2022/02/27 03:10:23;;;;;;;9.93;6.17;;;1.70;1.00;2.10;102078.00;;;;5019900;28;20460;-78
2022/02/27 03:12:51;;;;;;;15.37;6.80;;;1.60;1.00;2.10;102017.00;;;;5007031;28;20473;-78
2022/02/27 03:15:20;;;;;;;15.70;6.93;;;1.60;1.00;2.10;102093.00;;;;5012287;28;20454;-78
2022/02/27 03:17:48;;;;;;;13.07;6.70;;;1.60;1.00;217.30;157507.00;;;;5009452;28;20458;-78
2022/02/27 03:20:16;;;;;;;13.23;6.67;;;1.60;1.00;2.20;102083.00;;;;5024815;28;20457;-77
2022/02/27 03:22:45;;;;;;;10.77;6.23;;;1.60;1.00;2.10;102020.00;;;;5010576;28;20480;-78
2022/02/27 03:25:14;;;;;;;12.57;6.63;;;1.60;1.00;2.10;66697.00;;;;5012800;28;20448;-76
2022/02/27 03:27:43;;;;;;;14.00;6.70;;;1.60;1.00;2.00;102077.00;;;;5011173;28;20465;-78
2022/02/27 03:30:11;;;;;;;14.70;7.60;;;1.60;1.00;2.10;102069.00;;;;5010669;28;20460;-78
2022/02/27 03:32:46;;;;;;;12.87;6.50;;;1.60;1.00;2.00;102074.00;;;;5008774;28;21051;-77
2022/02/27 03:35:14;;;;;;;11.00;6.10;;;1.50;1.00;2.00;102054.00;;;;5028825;28;20474;-77
2022/02/27 03:37:43;;;;;;;11.77;6.33;;;1.90;1.00;2.10;102068.00;;;;5026737;28;20478;-78
2022/02/27 03:40:14;;;;;;;9.73;5.97;;;1.50;1.00;2.40;102070.00;;;;5008264;28;20488;-78
2022/02/27 03:42:42;;;;;;;8.93;5.70;;;1.60;1.00;2.20;102080.00;;;;5010935;28;20457;-77
2022/02/27 03:45:11;;;;;;;7.47;5.43;;;1.60;1.00;2.30;102079.00;;;;5024630;28;20461;-77
2022/02/27 03:47:42;;;;;;;9.70;6.10;;;1.60;1.00;2.20;102058.00;;;;5008253;28;20991;-78
2022/02/27 03:50:14;;;;;;;15.90;7.20;;;1.80;1.00;2.10;102074.00;;;;5011001;28;21003;-77
2022/02/27 03:52:42;;;;;;;12.67;6.57;;;1.60;1.00;2.30;102083.00;;;;5028501;28;20460;-77
2022/02/27 03:55:15;;;;;;;14.10;6.20;;;1.60;1.00;2.20;102086.00;;;;5011870;28;20453;-77
2022/02/27 03:57:44;;;;;;;13.80;6.17;;;1.70;1.00;2.30;102067.00;;;;5012517;28;20512;-78
2022/02/27 04:00:15;;;;;;;10.37;6.00;;;1.70;1.00;2.20;66729.00;;;;5010962;28;20460;-78
2022/02/27 04:02:45;;;;;;;16.93;6.70;;;1.60;1.00;2.10;102072.00;;;;5013490;28;21027;-78
2022/02/27 04:05:15;;;;;;;15.77;6.10;;;1.60;1.00;2.10;102059.00;;;;5014456;28;20460;-77
2022/02/27 04:07:43;;;;;;;11.13;5.77;;;1.60;1.00;2.20;102079.00;;;;5013631;28;20591;-78
2022/02/27 04:10:14;;;;;;;11.23;6.03;;;1.60;1.00;2.10;102096.00;;;;5014091;28;20457;-78
2022/02/27 04:12:43;;;;;;;11.90;6.43;;;1.60;1.00;2.20;102099.00;;;;5018725;28;20469;-78
2022/02/27 04:15:12;;;;;;;11.57;6.40;;;1.60;1.00;2.10;102094.00;;;;5011794;28;20475;-78
2022/02/27 04:17:40;;;;;;;11.60;5.63;;;1.60;1.00;2.20;102090.00;;;;5012343;28;20491;-78
2022/02/27 04:20:10;;;;;;;9.80;5.80;;;1.70;1.00;2.30;102096.00;;;;5012551;28;20462;-78
2022/02/27 04:22:39;;;;;;;9.40;5.63;;;1.60;1.00;2.30;66759.00;;;;5014819;28;20546;-77
2022/02/27 04:25:08;;;;;;;11.50;5.10;;;1.70;1.00;2.20;102087.00;;;;5013192;28;20462;-78
2022/02/27 04:27:38;;;;;;;11.03;5.90;;;1.70;1.00;2.40;102092.00;;;;5015762;28;20461;-78
2022/02/27 04:30:07;;;;;;;15.30;6.37;;;1.70;1.00;2.20;102086.00;;;;5012342;28;20460;-79
2022/02/27 04:32:35;;;;;;;8.93;5.40;;;1.70;1.00;2.30;102101.00;;;;5015679;28;20472;-78
2022/02/27 04:35:04;;;;;;;9.40;6.13;;;1.70;1.00;2.20;102076.00;;;;5029284;28;20467;-79
2022/02/27 04:37:33;;;;;;;12.80;5.80;;;1.70;1.00;2.20;102072.00;;;;5012790;28;20468;-78
2022/02/27 04:40:01;;;;;;;9.27;5.10;;;1.70;1.00;2.20;102086.00;;;;5012008;28;20455;-78
2022/02/27 04:42:30;;;;;;;9.43;5.00;;;2.10;1.00;2.10;102085.00;;;;5015957;28;20935;-78
2022/02/27 04:45:01;;;;;;;12.63;5.70;;;1.60;1.00;2.10;102081.00;;;;5014895;28;20962;-79
2022/02/27 04:47:32;;;;;;;8.83;5.77;;;1.60;1.00;2.10;102066.00;;;;5016278;28;20975;-78
2022/02/27 04:50:00;;;;;;;13.60;5.83;;;1.60;1.00;2.10;102072.00;;;;5013839;28;20833;-78
2022/02/27 04:52:28;;;;;;;10.33;5.70;;;1.60;1.00;2.00;102085.00;;;;5019021;28;20975;-79
2022/02/27 04:54:57;;;;;;;11.83;6.43;;;1.50;1.00;2.00;102077.00;;;;5011666;28;20460;-78
2022/02/27 04:57:25;;;;;;;11.23;5.80;;;1.50;1.00;2.00;102079.00;;;;5019037;28;20583;-78
2022/02/27 04:59:53;;;;;;;12.30;5.70;;;1.50;1.00;2.10;102071.00;;;;5038828;28;20468;-78
2022/02/27 05:02:24;;;;;;;10.97;5.67;;;1.50;1.00;2.00;102072.00;;;;5034677;28;20462;-78
2022/02/27 05:04:52;;;;;;;9.17;5.90;;;1.50;1.00;1.90;102078.00;;;;5031981;28;20479;-78
2022/02/27 05:07:20;;;;;;;12.87;5.70;;;1.50;1.00;1.90;102091.00;;;;5035582;28;21075;-78
2022/02/27 05:09:48;;;;;;;12.33;5.13;;;1.40;1.00;1.90;102072.00;;;;5025743;28;20456;-78
2022/02/27 05:12:18;;;;;;;6.30;4.83;;;1.70;1.00;1.90;102098.00;;;;5015284;28;20461;-78
2022/02/27 05:14:46;;;;;;;10.20;4.83;;;1.40;1.00;1.90;102087.00;;;;5015639;28;20469;-78
2022/02/27 05:17:36;;;;;;;8.90;5.50;;;1.40;1.00;2.00;102065.00;;;;5014134;28;20470;-78
2022/02/27 05:20:07;;;;;;;8.10;5.13;;;1.40;1.00;2.10;102080.00;;;;5015901;28;20462;-78
2022/02/27 05:22:35;;;;;;;9.30;5.53;;;1.50;1.00;2.10;102089.00;;;;5014983;28;20468;-78
2022/02/27 05:25:04;;;;;;;8.23;5.10;;;1.50;1.00;2.30;102066.00;;;;5012359;28;20449;-77
2022/02/27 05:27:32;;;;;;;9.70;5.47;;;1.50;1.00;2.30;102085.00;;;;5029278;28;20457;-77
2022/02/27 05:30:01;;;;;;;9.53;5.73;;;1.60;1.00;2.10;102103.00;;;;5011201;28;20970;-78
2022/02/27 05:32:29;;;;;;;11.93;5.83;;;1.50;1.00;1.90;102098.00;;;;5025791;28;20468;-78
2022/02/27 05:34:58;;;;;;;9.30;6.33;;;1.50;1.00;1.90;102114.00;;;;5020389;28;20463;-79
2022/02/27 05:37:27;;;;;;;10.10;5.40;;;1.40;1.00;2.00;102089.00;;;;5013356;28;20959;-78
2022/02/27 05:39:55;;;;;;;8.33;5.80;;;1.40;1.00;1.80;102111.00;;;;5013091;28;20457;-78
2022/02/27 05:42:24;;;;;;;10.23;5.17;;;1.40;1.00;1.90;102106.00;;;;5021363;28;20461;-78
2022/02/27 05:44:52;;;;;;;11.47;5.77;;;1.40;1.00;1.90;102102.00;;;;5044323;28;20445;-78
2022/02/27 05:47:20;;;;;;;8.27;6.37;;;1.40;1.00;1.90;102114.00;;;;5028652;28;20449;-77
2022/02/27 05:49:50;;;;;;;12.20;6.40;;;1.40;1.00;1.80;102127.00;;;;5035283;28;20471;-79
2022/02/27 05:52:20;;;;;;;12.10;5.73;;;1.40;1.00;1.90;102132.00;;;;5040473;28;20454;-79
2022/02/27 05:54:48;;;;;;;8.70;5.13;;;1.40;1.00;2.00;102104.00;;;;5043925;28;20465;-76
2022/02/27 05:57:17;;;;;;;8.27;5.67;;;1.40;1.00;2.00;102116.00;;;;5050240;28;20461;-77
2022/02/27 05:59:45;;;;;;;9.30;6.77;;;1.40;1.00;1.90;102125.00;;;;5044194;28;20513;-78
2022/02/27 06:02:14;;;;;;;10.60;5.93;;;1.40;1.00;1.90;102127.00;;;;5057089;28;20519;-78
2022/02/27 06:04:43;;;;;;;9.37;6.03;;;1.40;1.00;1.80;102120.00;;;;5054707;28;20568;-77
2022/02/27 06:07:11;;;;;;;9.20;5.60;;;1.30;1.00;1.70;102125.00;;;;5052670;28;20538;-76
2022/02/27 06:09:41;;;;;;;11.63;6.07;;;1.20;1.00;1.80;102129.00;;;;5018124;28;20454;-78
2022/02/27 06:12:10;;;;;;;13.70;6.80;;;1.20;1.00;1.80;102129.00;;;;5028872;28;20480;-77
2022/02/27 06:14:38;;;;;;;13.07;6.17;;;1.30;1.00;1.80;102131.00;;;;5024486;28;20479;-78
2022/02/27 06:17:06;;;;;;;12.37;6.10;;;1.30;1.00;1.80;102154.00;;;;5019266;28;20470;-77
2022/02/27 06:19:35;;;;;;;8.20;5.80;;;1.30;1.00;1.80;102136.00;;;;5017988;28;20461;-78
2022/02/27 06:22:03;;;;;;;13.80;6.23;;;1.40;1.00;1.80;102148.00;;;;5018476;28;20456;-78
2022/02/27 06:24:32;;;;;;;11.30;5.90;;;1.40;1.00;1.90;102142.00;;;;5030270;28;20852;-78
2022/02/27 06:27:03;;;;;;;13.87;6.47;;;1.30;1.00;1.90;102149.00;;;;5035711;28;20541;-78
2022/02/27 06:29:32;;;;;;;9.47;6.67;;;1.40;1.00;2.00;102148.00;;;;5015784;28;21528;-78
2022/02/27 06:32:03;;;;;;;11.37;6.20;;;1.50;1.00;2.10;102150.00;;;;5014988;28;20486;-78
2022/02/27 06:34:31;;;;;;;10.20;5.87;;;1.50;1.00;2.00;102150.00;;;;5032258;28;20481;-78
2022/02/27 06:36:59;;;;;;;11.23;6.27;;;1.60;1.00;2.10;102141.00;;;;5021456;28;20449;-79
2022/02/27 06:39:28;;;;;;;14.03;6.77;;;1.60;1.00;2.20;102156.00;;;;5040257;28;20476;-79
2022/02/27 06:41:56;;;;;;;10.97;6.37;;;1.60;1.00;2.20;102152.00;;;;5023622;28;20464;-78
2022/02/27 06:44:25;;;;;;;10.97;6.00;;;1.70;1.00;2.30;102152.00;;;;5015773;28;20468;-77
2022/02/27 06:46:54;;;;;;;13.40;6.57;;;1.80;1.00;2.50;102147.00;;;;5024313;28;20451;-77
2022/02/27 06:49:22;;;;;;;10.50;6.80;;;2.00;1.00;2.50;102167.00;;;;5018026;28;20445;-79
2022/02/27 06:51:51;;;;;;;10.17;6.63;;;2.00;1.00;2.50;102147.00;;;;5016546;28;20456;-79
2022/02/27 06:54:22;;;;;;;14.20;6.63;;;2.00;1.00;2.70;102167.00;;;;5015795;28;20477;-78
2022/02/27 06:56:51;;;;;;;11.00;6.57;;;2.10;1.00;2.70;102165.00;;;;5016536;28;20457;-78
2022/02/27 06:59:19;;;;;;;11.80;6.87;;;2.10;1.00;2.80;102164.00;;;;5014234;28;22184;-78
2022/02/27 07:01:49;;;;;;;11.07;6.60;;;2.20;1.00;2.90;102174.00;;;;5017263;28;20458;-78
2022/02/27 07:04:17;;;;;;;11.20;6.90;;;2.30;1.00;3.10;102174.00;;;;5017588;28;20555;-79
2022/02/27 07:06:45;;;;;;;12.20;7.00;;;2.40;1.00;3.10;102172.00;;;;5018633;28;21513;-79
2022/02/27 07:09:15;;;;;;;9.67;6.10;;;2.50;1.00;3.20;102167.00;;;;5016936;28;20469;-78
2022/02/27 07:11:47;;;;;;;11.07;6.70;;;2.50;1.00;3.30;102176.00;;;;5031855;28;20452;-79
2022/02/27 07:14:16;;;;;;;18.37;7.07;;;2.70;1.00;3.50;102178.00;;;;5032478;28;20480;-79
2022/02/27 07:16:44;;;;;;;9.53;6.17;;;2.80;1.00;3.50;102189.00;;;;5019850;28;20457;-79
2022/02/27 07:19:14;;;;;;;10.57;7.27;;;2.90;1.00;3.60;102162.00;;;;5016355;28;20493;-78
2022/02/27 07:21:42;;;;;;;10.70;6.20;;;3.00;1.00;3.70;102157.00;;;;5014648;28;20445;-79
2022/02/27 07:24:11;;;;;;;13.97;6.63;;;3.10;1.00;3.70;102168.00;;;;5017243;28;20476;-77
2022/02/27 07:26:40;;;;;;;9.57;6.50;;;3.20;1.00;3.70;102190.00;;;;5020960;28;20539;-78
2022/02/27 07:29:08;;;;;;;15.00;6.87;;;3.50;1.00;3.90;102173.00;;;;5016276;28;21411;-77
2022/02/27 07:31:37;;;;;;;12.93;6.20;;;3.30;1.00;4.00;102200.00;;;;5016124;28;20456;-78
2022/02/27 07:34:05;;;;;;;13.57;6.53;;;3.40;1.00;4.00;102199.00;;;;5019581;28;20503;-78
2022/02/27 07:36:35;;;;;;;12.23;6.70;;;3.50;1.00;4.20;102191.00;;;;5018608;28;20985;-78
2022/02/27 07:39:03;;;;;;;13.77;7.80;;;3.60;1.00;4.10;102194.00;;;;5019320;28;20488;-78
2022/02/27 07:41:33;;;;;;;9.97;6.40;;;3.60;1.00;4.20;102191.00;;;;5021329;28;20488;-81
2022/02/27 07:44:01;;;;;;;12.60;6.67;;;3.70;1.00;4.40;102196.00;;;;5027833;28;20481;-78
2022/02/27 07:46:32;;;;;;;12.33;7.63;;;3.80;1.00;4.40;102184.00;;;;5035497;28;20485;-78
2022/02/27 07:49:04;;;;;;;10.43;6.60;;;3.90;1.00;4.40;102179.00;;;;5035086;28;20553;-79
2022/02/27 07:51:32;;;;;;;11.63;6.40;;;3.90;1.00;4.60;102178.00;;;;5039970;28;20475;-79
2022/02/27 07:54:03;;;;;;;12.57;6.23;;;4.00;1.00;4.50;102177.00;;;;5040178;28;20760;-78
2022/02/27 07:56:31;;;;;;;10.37;6.27;;;4.00;1.00;4.60;102189.00;;;;5042101;28;20482;-78
2022/02/27 07:58:59;;;;;;;12.10;6.60;;;4.00;1.00;4.80;102176.00;;;;5040394;28;20537;-79
2022/02/27 08:01:30;;;;;;;12.90;7.40;;;4.20;1.00;4.90;102177.00;;;;5039028;28;20583;-78
2022/02/27 08:03:59;;;;;;;11.80;6.20;;;4.50;1.00;5.10;102193.00;;;;5027950;28;20844;-79
2022/02/27 08:06:30;;;;;;;13.27;6.97;;;4.90;1.00;4.90;102187.00;;;;5019307;28;20547;-79
2022/02/27 08:09:00;;;;;;;13.03;7.33;;;4.50;1.00;5.00;102192.00;;;;5019277;28;20453;-77
2022/02/27 08:11:32;;;;;;;10.47;6.97;;;4.50;1.00;5.00;102183.00;;;;5023802;28;20461;-78
2022/02/27 08:14:01;;;;;;;12.77;7.07;;;4.50;1.00;4.90;102197.00;;;;5021319;28;20472;-78
2022/02/27 08:16:32;;;;;;;13.17;7.70;;;4.50;1.00;5.00;102188.00;;;;5022636;28;20460;-78
2022/02/27 08:19:01;;;;;;;11.17;7.30;;;4.50;1.00;5.10;102194.00;;;;5018607;28;20478;-77
2022/02/27 08:21:29;;;;;;;11.60;8.10;;;4.60;1.00;5.20;102164.00;;;;5040367;28;20469;-79
2022/02/27 08:23:57;;;;;;;11.33;7.73;;;4.70;1.00;5.20;102185.00;;;;5042649;28;20454;-78
2022/02/27 08:26:26;;;;;;;13.73;7.17;;;4.70;1.00;5.20;102187.00;;;;5054753;28;20521;-79
2022/02/27 08:28:55;;;;;;;16.40;7.33;;;5.00;1.00;5.30;102179.00;;;;5042808;28;20457;-79
2022/02/27 08:31:23;;;;;;;15.00;7.63;;;4.80;1.00;5.20;102180.00;;;;5043626;28;20450;-79
2022/02/27 08:33:52;;;;;;;14.00;7.77;;;4.80;1.00;5.30;102200.00;;;;5062033;28;20490;-80
2022/02/27 08:36:20;;;;;;;12.53;7.50;;;4.80;1.00;5.40;102196.00;;;;5041354;28;20533;-79
2022/02/27 08:38:48;;;;;;;10.53;6.57;;;5.00;1.00;5.50;102189.00;;;;5049466;28;20484;-80
2022/02/27 08:41:17;;;;;;;12.13;6.97;;;5.00;1.00;5.70;102201.00;;;;5050985;28;20468;-78
2022/02/27 08:43:45;;;;;;;10.57;6.67;;;5.20;1.00;5.80;102202.00;;;;5050881;28;20492;-78
2022/02/27 08:46:15;;;;;;;9.83;7.00;;;5.30;1.00;5.80;102211.00;;;;5053601;28;20452;-80
2022/02/27 08:48:43;;;;;;;13.50;7.23;;;5.40;1.00;5.80;102199.00;;;;5050679;28;20428;-79
2022/02/27 08:51:12;;;;;;;12.27;6.83;;;5.40;1.00;6.00;102194.00;;;;5055455;28;20863;-80
2022/02/27 08:53:42;;;;;;;13.17;7.40;;;5.50;1.00;6.10;102195.00;;;;5034207;28;20480;-79
2022/02/27 08:56:11;;;;;;;11.27;7.73;;;5.70;1.00;6.10;102211.00;;;;5027773;28;20527;-79
2022/02/27 08:58:39;;;;;;;10.83;7.40;;;5.90;1.00;6.10;102187.00;;;;5031997;28;20489;-79
2022/02/27 09:01:07;;;;;;;11.93;7.93;;;5.80;1.00;6.20;102201.00;;;;5048420;28;20436;-79
2022/02/27 09:03:37;;;;;;;8.47;6.53;;;5.80;1.00;6.30;102189.00;;;;5050844;28;21022;-79
2022/02/27 09:06:06;;;;;;;12.37;6.60;;;5.90;1.00;6.30;102195.00;;;;5042705;28;20448;-81
2022/02/27 09:08:34;;;;;;;9.50;6.30;;;5.90;1.00;6.40;102212.00;;;;5055554;28;20477;-80
2022/02/27 09:11:02;;;;;;;9.17;5.70;;;6.00;1.00;6.50;102204.00;;;;5047213;28;20454;-79
2022/02/27 09:13:31;;;;;;;11.83;6.63;;;6.20;1.00;6.60;102206.00;;;;5029097;28;20468;-80
2022/02/27 09:16:02;;;;;;;10.33;5.63;;;6.30;1.00;6.50;102186.00;;;;5029581;28;20453;-79
2022/02/27 09:18:33;;;;;;;12.20;6.70;;;6.20;1.00;6.60;102198.00;;;;5024189;28;20460;-79
2022/02/27 09:21:03;;;;;;;10.17;6.50;;;6.20;1.00;6.70;102193.00;;;;5022196;28;20466;-80
2022/02/27 09:23:31;;;;;;;10.40;6.20;;;6.30;1.00;6.70;102197.00;;;;5020767;28;20595;-80
2022/02/27 09:26:00;;;;;;;11.17;5.30;;;6.30;1.00;6.80;102203.00;;;;5022376;28;20487;-80
2022/02/27 09:28:48;;;;;;;9.40;5.10;;;6.50;1.00;6.90;102198.00;;;;5022200;28;20460;-79
2022/02/27 09:31:17;;;;;;;8.33;6.07;;;6.50;1.00;7.10;102161.00;;;;5038404;28;20459;-80
2022/02/27 09:33:55;;;;;;;9.87;5.60;;;6.70;1.00;7.30;102191.00;;;;5021214;28;20489;-81
2022/02/27 09:36:26;;;;;;;9.83;6.40;;;6.90;1.00;7.20;102185.00;;;;5022791;28;20457;-79
2022/02/27 09:38:55;;;;;;;7.37;4.93;;;7.20;1.00;7.10;102180.00;;;;5018504;28;20453;-79
2022/02/27 09:41:24;;;;;;;13.10;7.37;;;6.80;1.00;7.20;102174.00;;;;5023683;28;20476;-79
2022/02/27 09:43:58;;;;;;;14.33;7.30;;;6.90;1.00;7.30;102143.00;;;;5024217;28;20910;-79
2022/02/27 09:46:28;;;;;;;11.60;7.20;;;7.00;1.00;7.40;102172.00;;;;5032253;28;20524;-80
2022/02/27 09:49:04;;;;;;;9.47;5.57;;;7.00;1.00;7.50;102175.00;;;;5020947;28;20453;-78
2022/02/27 09:51:34;;;;;;;8.23;6.53;;;7.20;1.00;7.50;102177.00;;;;5024121;28;20491;-80
2022/02/27 09:54:03;;;;;;;11.00;8.40;;;7.20;1.00;7.40;102167.00;;;;5020738;28;20512;-80
2022/02/27 09:56:31;;;;;;;10.73;5.50;;;7.20;1.00;7.50;102171.00;;;;5014894;28;21431;-78
2022/02/27 09:59:00;;;;;;;12.63;5.90;;;7.20;1.00;7.50;102175.00;;;;5017292;28;20458;-80
2022/02/27 10:01:28;;;;;;;10.50;6.20;;;7.20;1.00;7.70;102174.00;;;;5015656;28;20465;-80
2022/02/27 10:04:00;;;;;;;6.93;5.47;;;7.40;1.00;7.90;102173.00;;;;5018567;28;20512;-81
2022/02/27 10:06:28;;;;;;;9.63;6.20;;;7.60;1.00;8.00;102165.00;;;;5018693;28;20444;-78
2022/02/27 10:08:58;;;;;;;8.50;5.70;;;7.70;1.00;8.10;102164.00;;;;5034820;28;21042;-80
2022/02/27 10:11:27;;;;;;;11.20;5.90;;;7.80;1.00;8.20;102174.00;;;;5016552;28;20469;-80
2022/02/27 10:14:00;;;;;;;7.70;4.83;;;7.90;1.00;8.30;102152.00;;;;5021404;28;20485;-80
2022/02/27 10:16:30;;;;;;;10.73;6.57;;;8.00;1.00;8.30;102146.00;;;;5031350;28;20449;-79
2022/02/27 10:19:01;;;;;;;9.07;5.20;;;8.00;1.00;8.20;102177.00;;;;5026897;28;20563;-79
2022/02/27 10:21:32;;;;;;;8.27;6.17;;;7.90;1.00;8.30;102164.00;;;;5025559;28;20473;-80
2022/02/27 10:24:19;;;;;;;9.40;5.33;;;8.00;1.00;8.50;102139.00;;;;5013573;28;20572;-79
2022/02/27 10:26:51;;;;;;;9.20;5.27;;;8.20;1.00;8.70;102172.00;;;;5033537;28;20456;-79
2022/02/27 10:29:22;;;;;;;7.03;5.10;;;8.40;1.00;8.60;102157.00;;;;5038779;28;20499;-79
2022/02/27 10:31:53;;;;;;;7.20;5.00;;;8.40;1.00;8.80;102156.00;;;;5029678;28;20454;-79
2022/02/27 10:34:31;;;;;;;8.17;5.00;;;8.50;1.00;8.60;102164.00;;;;5021129;28;20469;-79
2022/02/27 10:37:03;;;;;;;9.30;5.13;;;8.60;1.00;8.70;102162.00;;;;5020481;28;20568;-79
2022/02/27 10:39:46;;;;;;;7.40;4.83;;;8.50;1.00;8.80;102141.00;;;;5023330;28;20464;-79
2022/02/27 10:42:19;;;;;;;6.87;5.30;;;8.50;1.00;9.00;102134.00;;;;5037908;28;20464;-79
2022/02/27 10:44:54;;;;;;;11.27;8.30;;;8.70;1.00;9.00;102146.00;;;;5033205;28;20571;-79
2022/02/27 10:47:24;;;;;;;9.37;5.83;;;8.80;1.00;9.00;102143.00;;;;5035784;28;20432;-81
2022/02/27 10:49:55;;;;;;;7.30;5.10;;;8.80;1.00;9.00;102135.00;;;;5024766;28;20477;-80
2022/02/27 10:52:27;;;;;;;9.00;5.40;;;9.00;1.00;9.10;102137.00;;;;5023440;28;20515;-78
2022/02/27 10:55:00;;;;;;;9.40;5.77;;;8.90;1.00;9.10;102114.00;;;;5026674;28;20545;-80
2022/02/27 10:57:34;;;;;;;7.87;6.13;;;8.90;1.00;9.50;102129.00;;;;5020341;28;20835;-78
2022/02/27 11:00:14;;;;;;;8.53;5.50;;;9.30;1.00;9.60;102112.00;;;;5017776;28;20942;-79
2022/02/27 11:02:44;;;;;;;9.53;4.83;;;9.40;1.00;9.60;102100.00;;;;5017361;28;20552;-79
2022/02/27 11:05:15;;;;;;;8.60;5.03;;;9.50;1.00;9.60;102108.00;;;;5015499;28;21015;-78
2022/02/27 11:07:46;;;;;;;6.03;4.10;;;9.40;1.00;9.80;102108.00;;;;5018601;28;20467;-78
2022/02/27 11:10:19;;;;;;;6.40;4.10;;;9.90;1.00;10.00;102102.00;;;;5017475;28;20462;-79
2022/02/27 11:12:49;;;;;;;5.87;3.90;;;9.70;1.00;10.10;102066.00;;;;5016059;28;20579;-78
2022/02/27 11:15:21;;;;;;;5.80;3.87;;;9.80;1.00;10.00;102099.00;;;;5031062;28;21013;-78